Weerspreuk van de dag: Wie nu zijn vel niet brandt, staat starks als een bleekscheet op het strand.
Es ist keine erhöhte Aufmerksamkeit aufgrund des Wetters notwendig.    Es gibt keine Warnungen.

Thunder radar more information blitzortung!


Rain radar more information rain snow radar


Bekijk deze sites ook eens:

FPL Automotive (TIP)

Autostekkers.nl (TIP)

Over Luyksgestel

De Kempen, mijn omgeving

BOL.com

Weerstation Noordbergum

Inktweb

Weerstation Hapert

Weerstation Hoogeloon

Weerstation Son&Breugel

Weerstation Castaert

Nieuw horloge

Weerstation Tilburg Reeshof

Weerstation Scheulder

Weerverwachting Samos

Samos actueel

Weerwoord (forum)

Griekenlandforum

Vakantie naar Samos

Winterzon

Canon

Wolven in Nederland



METAR-Meldungen aus der Umgebung

   
EBAW - Antwerp
Aktualisierung: 15-07-2020 03:20
Klar  
Klar  
   Wind: variiert 1.9 km/h
Wind: variiert 1.9 km/h
Temperatur: 14°C
Taupunkt: 9°C
Luftfeuchte: 72%
Luftdruck: 1014 hPa
Sichtbarkeit: More than 10 km
Bewölkung: Klar
EBAW 150120Z AUTO VRB01KT CAVOK 14/09 Q1014
EBLG - Liège
Aktualisierung: 15-07-2020 03:20
Nebel, Stark bewölkt  
Nebel, Stark bewölkt  
   Wind: NW 7.4 km/h
Wind: NW 7.4 km/h
Temperatur: 14°C
Taupunkt: 13°C
Luftfeuchte: 94%
Luftdruck: 1014 hPa
Bewölkt: Stark bewölkt
Sichtbarkeit: 2 km
Bewölkung: Teilweise bewölkt 200 ft,
Stark bewölkt 400 ft
EBLG 150120Z 32004KT 2100 BR SCT002 BKN004 14/13 Q1014 TEMPO 0800 FG BKN002
EBCV - Mons/Bergen
Aktualisierung: 15-07-2020 03:25
Nebel, Bewölkt  
Nebel, Bewölkt  
   Wind: variiert 1.9 km/h
Wind: variiert 1.9 km/h
Temperatur: 14°C
Taupunkt: 14°C
Luftfeuchte: 100%
Luftdruck: 1014 hPa
Bewölkt: Bewölkt
Sichtbarkeit: 3 km
Bewölkung: Bewölkt 6900 ft
EBCV 150125Z AUTO VRB01KT 2800 BR OVC069/// 14/14 Q1014 YLO
EHBK - Maastricht
Aktualisierung: 15-07-2020 03:25
Teilweise bewölkt  
Teilweise bewölkt  
   Wind: NW 5.6 km/h
Wind: NW 5.6 km/h
Temperatur: 13°C
Taupunkt: 12°C
Luftfeuchte: 94%
Luftdruck: 1014 hPa
Bewölkt: Teilweise bewölkt
Sichtbarkeit: More than 10 km
Bewölkung: Teilweise bewölkt
EHBK 150125Z AUTO 31003KT 280V340 9999 NSC 13/12 Q1014
ELLX - Luxemburg
Aktualisierung: 15-07-2020 03:20
Bewölkt  
Bewölkt  
   Wind: WNW 5.6 km/h
Wind: WNW 5.6 km/h
Temperatur: 14°C
Taupunkt: 13°C
Luftfeuchte: 94%
Luftdruck: 1014 hPa
Bewölkt: Bewölkt
Sichtbarkeit: More than 10 km
Bewölkung: Stark bewölkt 2700 ft,
Bewölkt 3100 ft
ELLX 150120Z AUTO 30003KT 9999 BKN027/// OVC031/// 14/13 Q1014 NOSIG
EBOS - Oostende
Aktualisierung: 15-07-2020 03:20
leicht bewölkt  
leicht bewölkt  
   Wind: SSW 5.6 km/h
Wind: SSW 5.6 km/h
Temperatur: 14°C
Taupunkt: 13°C
Luftfeuchte: 94%
Luftdruck: 1015 hPa
Bewölkt: leicht bewölkt
Sichtbarkeit: More than 10 km
Bewölkung: leicht bewölkt 1800 ft
EBOS 150120Z 21003KT 9999 FEW018 14/13 Q1015 NOSIG

Script entwickelt von  Saratoga-weather.org Angepasst für das Template von  Weerstation Leuven

Sie finden unser Wetter-Infos auch auf:

Het Weer Aktueel

UK Metoffice

European Weather Network

Weather Underground

AWEKAS